Time;durP1;ratioP1;P1;durP2;ratioP2;P2;SDS_P1;SDS_P2;PMS_P1;PMS_P2;Temp;Humidity;BMP_temperature;BMP_pressure;BME280_temperature;BME280_humidity;BME280_pressure;Samples;Min_cycle;Max_cycle;Signal;HPM_P1;HPM_P2
2023/09/10 00:00:10;;;;;;;8.40;5.70;;;;;;;13.75;100.00;99783.86;109656;1250;72492;-66
2023/09/10 00:02:36;;;;;;;11.10;6.20;;;;;;;13.71;100.00;99781.70;109678;1250;60201;-66
2023/09/10 00:05:06;;;;;;;7.80;6.10;;;;;;;13.68;100.00;99782.01;109661;1250;59714;-65
2023/09/10 00:07:33;;;;;;;9.80;6.70;;;;;;;13.66;100.00;99782.65;109628;1251;74127;-66
2023/09/10 00:09:59;;;;;;;6.90;5.70;;;;;;;13.61;100.00;99783.37;109661;1250;66694;-63
2023/09/10 00:12:26;;;;;;;8.70;6.00;;;;;;;13.54;100.00;99781.56;109717;1250;71556;-64
2023/09/10 00:14:52;;;;;;;12.50;6.20;;;;;;;13.46;100.00;99786.38;109629;1250;61749;-66
2023/09/10 00:17:19;;;;;;;7.30;5.90;;;;;;;13.39;100.00;99788.89;109709;1250;60366;-62
2023/09/10 00:19:47;;;;;;;10.00;5.80;;;;;;;13.32;100.00;99791.59;109685;1250;75343;-66
2023/09/10 00:22:14;;;;;;;7.60;6.20;;;;;;;13.27;100.00;99794.90;109696;1250;67797;-64
2023/09/10 00:24:40;;;;;;;8.80;7.00;;;;;;;13.22;100.00;99794.27;109657;1253;59758;-67
2023/09/10 00:27:07;;;;;;;8.50;6.00;;;;;;;13.18;100.00;99790.86;109614;1251;59807;-66
2023/09/10 00:29:33;;;;;;;9.70;6.00;;;;;;;13.13;100.00;99793.68;109712;1250;59748;-67
2023/09/10 00:32:00;;;;;;;6.30;5.50;;;;;;;13.10;100.00;99795.92;109635;1250;75258;-66
2023/09/10 00:34:29;;;;;;;10.40;6.10;;;;;;;13.06;100.00;99797.20;109702;1250;67715;-64
2023/09/10 00:36:55;;;;;;;8.60;5.60;;;;;;;13.05;100.00;99792.21;109551;1250;72483;-62
2023/09/10 00:39:22;;;;;;;7.50;5.90;;;;;;;13.04;100.00;99798.73;109648;1250;60665;-64
2023/09/10 00:41:49;;;;;;;7.60;5.60;;;;;;;13.03;100.00;99794.77;109678;1250;59748;-65
2023/09/10 00:44:15;;;;;;;8.70;5.80;;;;;;;13.03;100.00;99797.08;109713;1250;60183;-64
2023/09/10 00:46:42;;;;;;;8.00;6.20;;;;;;;13.06;100.00;99799.93;109659;1249;67794;-63
2023/09/10 00:49:09;;;;;;;10.00;6.00;;;;;;;13.11;100.00;99796.88;109657;1250;73132;-65
2023/09/10 00:51:36;;;;;;;9.60;6.50;;;;;;;13.12;100.00;99793.65;109679;1250;59765;-66
2023/09/10 00:54:02;;;;;;;11.20;6.30;;;;;;;13.10;100.00;99793.79;109628;1250;60080;-63
2023/09/10 00:56:30;;;;;;;7.90;6.00;;;;;;;13.04;100.00;99795.98;109673;1250;75494;-66
2023/09/10 00:58:56;;;;;;;8.70;6.20;;;;;;;12.99;100.00;99796.16;109543;1250;67648;-65
2023/09/10 01:01:23;;;;;;;6.20;5.40;;;;;;;12.97;100.00;99794.91;109538;1250;72704;-66
2023/09/10 01:03:50;;;;;;;7.30;5.90;;;;;;;12.94;100.00;99792.86;109526;1250;61697;-64
2023/09/10 01:06:17;;;;;;;8.00;5.60;;;;;;;12.92;100.00;99790.81;109572;1250;59660;-64
2023/09/10 01:08:44;;;;;;;7.70;5.90;;;;;;;12.90;100.00;99789.98;109621;1250;75984;-66
2023/09/10 01:11:26;;;;;;;6.90;5.60;;;;;;;12.89;100.00;99789.40;109687;1250;67689;-67
2023/09/10 01:14:11;;;;;;;10.80;6.30;;;;;;;12.89;100.00;99791.36;109677;1250;71477;-66
2023/09/10 01:16:48;;;;;;;11.10;5.80;;;;;;;12.87;100.00;99794.25;109533;1250;59819;-67
2023/09/10 01:19:44;;;;;;;10.50;6.20;;;;;;;12.85;100.00;99796.70;109643;1250;60100;-63
2023/09/10 01:22:23;;;;;;;8.70;5.90;;;;;;;12.81;100.00;99799.80;109732;1250;75349;-65
2023/09/10 01:24:50;;;;;;;7.80;5.30;;;;;;;12.77;100.00;99802.39;109581;1250;67878;-62
2023/09/10 01:27:17;;;;;;;8.40;5.40;;;;;;;12.73;100.00;99802.19;109605;1250;72419;-64
2023/09/10 01:29:44;;;;;;;8.20;5.30;;;;;;;12.70;100.00;99802.83;109629;1250;61862;-64
2023/09/10 01:32:22;;;;;;;6.30;5.30;;;;;;;12.69;100.00;99803.64;109582;1250;60435;-66
2023/09/10 01:34:51;;;;;;;9.80;6.80;;;;;;;12.71;100.00;99804.02;109693;1250;75231;-64
2023/09/10 01:37:46;;;;;;;6.40;5.80;;;;;;;12.72;100.00;99803.31;109435;1250;67821;-65
2023/09/10 01:40:15;;;;;;;8.50;5.80;;;;;;;12.74;100.00;99801.34;109646;1250;72431;-65
2023/09/10 01:42:42;;;;;;;6.80;5.50;;;;;;;12.74;100.00;99799.77;109534;1250;60112;-64
2023/09/10 01:45:09;;;;;;;5.60;4.80;;;;;;;12.73;100.00;99797.54;109550;1250;59808;-65
2023/09/10 01:47:36;;;;;;;7.30;5.50;;;;;;;12.70;100.00;99795.16;109539;1250;74697;-65
2023/09/10 01:50:03;;;;;;;6.70;5.50;;;;;;;12.67;100.00;99796.12;109676;1250;67744;-63
2023/09/10 01:52:30;;;;;;;9.70;5.50;;;;;;;12.61;100.00;99791.80;109421;1250;72348;-62
2023/09/10 01:54:56;;;;;;;8.20;5.40;;;;;;;12.56;100.00;99789.66;109591;1250;60035;-66
2023/09/10 01:57:23;;;;;;;6.90;5.40;;;;;;;12.53;100.00;99786.55;109589;1250;59688;-66
2023/09/10 01:59:49;;;;;;;6.90;5.20;;;;;;;12.48;100.00;99786.61;109655;1250;59777;-64
2023/09/10 02:02:17;;;;;;;10.30;5.90;;;;;;;12.41;100.00;99781.14;109609;1250;59778;-66
2023/09/10 02:04:44;;;;;;;8.30;4.90;;;;;;;12.33;100.00;99781.09;109651;1250;71467;-67
2023/09/10 02:07:10;;;;;;;6.40;5.00;;;;;;;12.25;100.00;99782.02;109603;1250;61726;-67
2023/09/10 02:09:37;;;;;;;9.00;5.10;;;;;;;12.17;100.00;99786.70;109617;1251;59992;-66
2023/09/10 02:12:04;;;;;;;4.80;4.30;;;;;;;12.13;100.00;99784.86;109690;1250;59755;-68
2023/09/10 02:14:30;;;;;;;8.10;5.50;;;;;;;12.10;100.00;99784.85;109616;1250;68357;-66
2023/09/10 02:16:57;;;;;;;9.40;5.20;;;;;;;12.07;100.00;99784.13;109443;1250;72552;-64
2023/09/10 02:19:26;;;;;;;9.50;5.30;;;;;;;12.05;100.00;99779.54;109629;1254;60646;-65
2023/09/10 02:21:53;;;;;;;7.80;4.80;;;;;;;12.05;100.00;99780.30;109643;1250;59855;-66
2023/09/10 02:24:20;;;;;;;9.00;5.40;;;;;;;12.06;100.00;99784.03;109688;1254;75249;-65
2023/09/10 02:26:46;;;;;;;7.60;5.40;;;;;;;12.10;100.00;99784.55;109671;1250;59748;-65
2023/09/10 02:29:13;;;;;;;6.10;5.50;;;;;;;12.13;100.00;99784.36;109652;1250;72463;-63
2023/09/10 02:31:39;;;;;;;8.80;4.70;;;;;;;12.17;100.00;99784.42;109504;1250;59857;-64
2023/09/10 02:34:06;;;;;;;8.60;5.00;;;;;;;12.20;100.00;99780.27;109682;1250;60141;-63
2023/09/10 02:36:33;;;;;;;8.30;5.30;;;;;;;12.22;100.00;99785.04;109556;1250;75589;-63
2023/09/10 02:39:00;;;;;;;7.20;5.20;;;;;;;12.21;100.00;99783.17;109575;1250;66339;-65
2023/09/10 02:41:27;;;;;;;6.40;4.60;;;;;;;12.21;100.00;99782.90;109616;1250;71410;-63
2023/09/10 02:43:54;;;;;;;7.30;5.10;;;;;;;12.20;100.00;99780.48;109616;1251;59791;-65
2023/09/10 02:46:20;;;;;;;7.90;4.90;;;;;;;12.19;100.00;99779.72;109605;1251;59806;-64
2023/09/10 02:48:47;;;;;;;6.80;4.90;;;;;;;12.17;100.00;99784.60;109601;1250;74120;-67
2023/09/10 02:51:13;;;;;;;7.60;5.20;;;;;;;12.15;100.00;99780.08;109695;1251;59698;-62
2023/09/10 02:53:40;;;;;;;8.50;5.00;;;;;;;12.12;100.00;99782.44;109710;1251;59698;-66
2023/09/10 02:56:07;;;;;;;7.00;5.40;;;;;;;12.09;100.00;99782.09;109573;1251;59749;-64
2023/09/10 02:58:34;;;;;;;7.70;5.40;;;;;;;12.05;100.00;99781.70;109696;1251;60169;-64
2023/09/10 03:01:05;;;;;;;5.80;4.70;;;;;;;12.00;100.00;99782.79;109629;1251;76025;-66
2023/09/10 03:03:33;;;;;;;7.20;5.10;;;;;;;11.95;100.00;99784.58;109576;1251;66913;-66
2023/09/10 03:06:00;;;;;;;6.20;4.80;;;;;;;11.91;100.00;99788.08;109555;1251;71572;-63
2023/09/10 03:08:27;;;;;;;8.80;5.80;;;;;;;11.87;100.00;99787.30;109639;1251;60321;-65
2023/09/10 03:10:54;;;;;;;7.90;5.20;;;;;;;11.84;100.00;99786.80;109525;1251;59725;-63
2023/09/10 03:13:20;;;;;;;7.30;4.70;;;;;;;11.81;100.00;99789.44;109655;1251;73268;-64
2023/09/10 03:15:48;;;;;;;8.80;5.30;;;;;;;11.77;100.00;99790.19;109629;1250;67749;-66
2023/09/10 03:18:14;;;;;;;6.80;4.70;;;;;;;11.73;100.00;99790.26;109640;1251;72635;-64
2023/09/10 03:20:41;;;;;;;6.00;4.80;;;;;;;11.70;100.00;99786.33;109493;1250;60204;-64
2023/09/10 03:23:07;;;;;;;7.70;5.30;;;;;;;11.68;100.00;99786.23;109613;1250;59844;-62
2023/09/10 03:25:39;;;;;;;5.50;4.90;;;;;;;11.65;100.00;99787.78;109529;1250;75363;-61
2023/09/10 03:28:06;;;;;;;9.90;5.10;;;;;;;11.61;100.00;99787.85;109554;1250;68041;-64
2023/09/10 03:30:32;;;;;;;7.10;4.50;;;;;;;11.57;100.00;99784.96;109661;1250;73332;-64
2023/09/10 03:32:59;;;;;;;5.40;4.90;;;;;;;11.55;100.00;99784.77;109626;1250;60756;-65
2023/09/10 03:35:26;;;;;;;5.00;4.20;;;;;;;11.57;100.00;99786.89;109593;1251;60105;-65
2023/09/10 03:37:53;;;;;;;6.70;4.60;;;;;;;11.60;100.00;99786.36;109662;1250;73987;-63
2023/09/10 03:40:20;;;;;;;7.10;4.70;;;;;;;11.65;100.00;99784.45;109658;1250;67669;-64
2023/09/10 03:42:46;;;;;;;7.80;4.60;;;;;;;11.69;100.00;99781.80;109683;1251;71189;-65
2023/09/10 03:45:13;;;;;;;5.80;5.20;;;;;;;11.72;100.00;99781.80;109603;1250;61552;-65
2023/09/10 03:47:39;;;;;;;5.80;4.50;;;;;;;11.74;100.00;99780.69;109447;1250;60129;-64
2023/09/10 03:50:07;;;;;;;6.90;5.10;;;;;;;11.77;100.00;99781.66;109702;1250;74909;-63
2023/09/10 03:52:34;;;;;;;6.50;4.80;;;;;;;11.80;100.00;99781.30;109569;1251;67053;-63
2023/09/10 03:55:00;;;;;;;6.10;4.60;;;;;;;11.84;100.00;99781.97;109513;1250;59714;-64
2023/09/10 03:57:27;;;;;;;7.80;4.80;;;;;;;11.87;100.00;99778.44;109493;1251;59945;-63
2023/09/10 03:59:54;;;;;;;5.70;4.30;;;;;;;11.90;100.00;99777.55;109542;1250;60201;-67
2023/09/10 04:02:20;;;;;;;5.80;4.80;;;;;;;11.94;100.00;99774.98;109673;1251;74322;-63
2023/09/10 04:04:47;;;;;;;5.80;4.80;;;;;;;11.99;100.00;99776.11;109655;1250;66420;-65
2023/09/10 04:07:13;;;;;;;5.30;4.10;;;;;;;12.08;100.00;99774.55;109640;1250;72745;-66
2023/09/10 04:09:41;;;;;;;5.10;4.50;;;;;;;12.21;100.00;99773.94;109592;1251;60508;-67
2023/09/10 04:12:08;;;;;;;4.80;4.10;;;;;;;12.39;100.00;99775.48;109608;1251;59988;-66
2023/09/10 04:14:34;;;;;;;5.00;4.50;;;;;;;12.59;100.00;99774.60;109601;1251;74241;-66
2023/09/10 04:17:01;;;;;;;5.60;4.80;;;;;;;12.81;100.00;99767.93;109657;1250;66649;-65
2023/09/10 04:19:28;;;;;;;5.60;4.80;;;;;;;13.05;100.00;99765.85;109647;1251;72667;-68
2023/09/10 04:21:55;;;;;;;8.10;4.70;;;;;;;13.29;100.00;99764.52;109595;1250;60131;-67
2023/09/10 04:24:23;;;;;;;5.80;4.20;;;;;;;13.54;100.00;99763.73;109649;1250;60238;-66
2023/09/10 04:26:50;;;;;;;5.90;4.30;;;;;;;13.72;100.00;99765.11;109540;1251;73972;-65
2023/09/10 04:29:16;;;;;;;6.30;4.50;;;;;;;13.85;100.00;99766.20;109608;1250;67629;-67
2023/09/10 04:31:43;;;;;;;5.60;4.30;;;;;;;13.99;100.00;99760.23;109594;1251;72671;-67
2023/09/10 04:34:10;;;;;;;5.90;4.80;;;;;;;14.13;100.00;99759.42;109504;1254;59667;-66
2023/09/10 04:36:37;;;;;;;9.30;5.00;;;;;;;14.32;100.00;99758.53;109567;1251;59834;-64
2023/09/10 04:39:09;;;;;;;5.30;4.10;;;;;;;14.50;100.00;99752.00;109653;1251;75500;-68
2023/09/10 04:41:38;;;;;;;5.50;4.40;;;;;;;14.69;100.00;99751.20;109567;1251;67687;-64
2023/09/10 04:44:05;;;;;;;5.60;4.90;;;;;;;14.86;100.00;99751.07;109532;1251;72419;-66
2023/09/10 04:46:32;;;;;;;5.40;4.70;;;;;;;15.04;100.00;99751.13;109515;1251;59734;-67
2023/09/10 04:48:59;;;;;;;5.80;4.60;;;;;;;15.20;100.00;99749.00;109643;1251;60077;-66
2023/09/10 04:51:26;;;;;;;4.90;4.00;;;;;;;15.35;100.00;99751.89;109563;1251;75322;-65
2023/09/10 04:53:52;;;;;;;6.70;4.30;;;;;;;15.47;100.00;99753.45;109567;1251;65493;-65
2023/09/10 04:56:19;;;;;;;6.70;4.40;;;;;;;15.62;100.00;99756.94;109391;1251;72629;-65
2023/09/10 04:58:46;;;;;;;4.90;3.90;;;;;;;15.79;100.00;99754.83;109598;1250;59850;-64
2023/09/10 05:01:13;;;;;;;7.70;4.70;;;;;;;15.96;100.00;99753.48;109665;1250;59670;-65
2023/09/10 05:03:41;;;;;;;6.20;4.00;;;;;;;16.16;100.00;99753.30;109407;1251;74149;-67
2023/09/10 05:06:09;;;;;;;5.10;4.10;;;;;;;16.35;100.00;99752.89;109559;1251;67887;-65
2023/09/10 05:08:36;;;;;;;6.80;3.90;;;;;;;16.55;100.00;99752.56;109604;1250;72447;-64
2023/09/10 05:11:03;;;;;;;5.50;3.90;;;;;;;16.71;100.00;99752.33;109521;1251;59795;-64
2023/09/10 05:13:30;;;;;;;7.00;4.50;;;;;;;16.86;100.00;99748.48;109650;1251;59824;-65
2023/09/10 05:15:57;;;;;;;5.30;3.80;;;;;;;17.05;100.00;99747.05;109394;1250;188950;-66
2023/09/10 05:18:24;;;;;;;4.00;3.60;;;;;;;17.26;100.00;99743.46;109683;1251;68084;-66
2023/09/10 05:20:55;;;;;;;5.40;4.70;;;;;;;17.42;100.00;99745.16;109524;1251;71985;-67
2023/09/10 05:23:23;;;;;;;4.70;4.10;;;;;;;17.53;100.00;99747.41;109487;1251;60867;-65
2023/09/10 05:25:50;;;;;;;5.60;4.10;;;;;;;17.60;100.00;99749.45;109463;1251;60129;-68
2023/09/10 05:28:17;;;;;;;5.50;3.60;;;;;;;17.77;100.00;99749.45;109669;1251;75453;-64
2023/09/10 05:30:43;;;;;;;5.40;4.00;;;;;;;18.02;100.00;99748.73;109514;1253;67718;-65
2023/09/10 05:33:10;;;;;;;5.70;4.20;;;;;;;18.32;100.00;99748.79;109586;1251;72642;-67
2023/09/10 05:35:37;;;;;;;6.10;4.70;;;;;;;18.64;100.00;99749.45;109667;1250;59796;-65
2023/09/10 05:38:03;;;;;;;4.90;3.60;;;;;;;18.94;100.00;99749.27;109641;1251;60128;-66
2023/09/10 05:40:36;;;;;;;7.60;4.50;;;;;;;19.23;100.00;99748.86;109642;1251;75471;-66
2023/09/10 05:43:06;;;;;;;5.40;4.00;;;;;;;19.55;100.00;99750.20;109536;1251;67305;-62
2023/09/10 05:45:34;;;;;;;5.20;4.10;;;;;;;19.83;100.00;99748.71;109543;1251;73108;-67
2023/09/10 05:48:01;;;;;;;5.60;4.50;;;;;;;20.06;100.00;99749.13;109650;1251;60029;-65
2023/09/10 05:50:28;;;;;;;4.30;3.90;;;;;;;20.28;100.00;99751.14;109582;1251;59729;-65
2023/09/10 05:52:56;;;;;;;5.90;4.30;;;;;;;20.51;99.62;99751.65;109556;1250;75606;-66
2023/09/10 05:55:24;;;;;;;6.50;4.00;;;;;;;20.80;98.91;99746.66;109610;1250;66680;-64
2023/09/10 05:57:52;;;;;;;5.30;3.80;;;;;;;21.11;96.35;99747.15;109580;1251;72690;-66
2023/09/10 06:00:20;;;;;;;5.90;3.80;;;;;;;21.38;93.99;99750.25;109579;1251;60053;-68
2023/09/10 06:02:47;;;;;;;6.60;3.90;;;;;;;21.64;89.78;99745.15;109572;1250;60357;-64
2023/09/10 06:05:13;;;;;;;7.30;3.80;;;;;;;21.76;85.57;99742.61;109695;1250;75266;-67
2023/09/10 06:07:40;;;;;;;5.90;4.10;;;;;;;21.75;82.62;99747.16;109594;1250;68294;-64
2023/09/10 06:10:09;;;;;;;7.30;6.60;;;;;;;21.67;80.70;99749.39;109660;1251;72759;-62
2023/09/10 06:12:38;;;;;;;8.40;4.60;;;;;;;21.70;79.86;99750.09;109568;1251;59762;-65
2023/09/10 06:15:06;;;;;;;4.90;3.70;;;;;;;21.83;79.64;99750.52;109572;1251;60259;-62
2023/09/10 06:17:33;;;;;;;3.50;3.20;;;;;;;21.98;77.05;99747.35;109493;1251;74787;-65
2023/09/10 06:20:00;;;;;;;4.80;3.80;;;;;;;21.90;74.96;99745.48;109652;1250;66428;-67
2023/09/10 06:22:27;;;;;;;5.60;3.70;;;;;;;21.84;76.88;99749.52;109577;1251;72650;-65
2023/09/10 06:24:53;;;;;;;4.20;3.30;;;;;;;22.06;78.09;99748.52;109513;1251;60505;-67
2023/09/10 06:27:20;;;;;;;4.70;3.60;;;;;;;22.39;76.80;99751.26;109560;1251;59837;-66
2023/09/10 06:29:47;;;;;;;3.70;3.30;;;;;;;22.63;73.35;99746.88;109481;1251;75629;-66
2023/09/10 06:32:14;;;;;;;3.10;2.80;;;;;;;22.79;71.89;99748.17;109551;1250;66413;-65
2023/09/10 06:34:41;;;;;;;5.50;3.30;;;;;;;22.88;70.63;99747.25;109644;1250;72605;-66
2023/09/10 06:37:08;;;;;;;4.80;3.50;;;;;;;22.89;69.57;99746.62;109535;1250;60813;-70
2023/09/10 06:39:38;;;;;;;3.90;3.20;;;;;;;22.96;70.43;99747.63;109528;1251;59695;-71
2023/09/10 06:42:13;;;;;;;5.70;3.60;;;;;;;23.23;70.26;99745.81;109540;1250;75572;-66
2023/09/10 06:44:43;;;;;;;4.60;3.30;;;;;;;23.43;66.67;99746.40;109621;1251;67803;-67
2023/09/10 06:47:10;;;;;;;4.20;3.70;;;;;;;23.35;66.30;99752.90;109663;1250;72458;-62
2023/09/10 06:49:37;;;;;;;5.40;3.10;;;;;;;23.45;65.95;99749.73;109648;1250;60376;-65
2023/09/10 06:52:08;;;;;;;4.00;3.30;;;;;;;23.51;64.60;99746.73;109654;1250;59715;-66
2023/09/10 06:54:35;;;;;;;7.40;3.50;;;;;;;23.49;64.45;99748.60;109660;1250;75426;-64
2023/09/10 06:57:02;;;;;;;3.30;3.00;;;;;;;23.59;64.65;99747.78;109601;1250;66559;-65
2023/09/10 06:59:28;;;;;;;3.80;3.00;;;;;;;23.85;64.94;99747.58;109597;1250;72521;-63
2023/09/10 07:01:55;;;;;;;3.60;3.10;;;;;;;24.26;64.48;99751.95;109565;1250;60050;-64
2023/09/10 07:04:23;;;;;;;4.60;3.00;;;;;;;24.64;61.72;99756.63;109706;1251;59701;-65
2023/09/10 07:06:50;;;;;;;7.50;3.10;;;;;;;24.87;60.85;99754.88;109703;1250;73465;-67
2023/09/10 07:09:21;;;;;;;6.40;3.40;;;;;;;25.07;58.13;99758.85;109691;1250;67753;-71
2023/09/10 07:11:48;;;;;;;4.70;3.10;;;;;;;25.24;57.49;99761.45;109626;1250;72444;-70
2023/09/10 07:14:15;;;;;;;3.70;2.90;;;;;;;25.44;55.83;99759.84;109614;1250;59793;-69
2023/09/10 07:16:41;;;;;;;4.50;2.60;;;;;;;25.54;54.13;99757.17;109710;1250;59739;-70
2023/09/10 07:19:08;;;;;;;4.40;3.00;;;;;;;25.66;53.62;99755.56;109667;1250;73886;-75
2023/09/10 07:21:35;;;;;;;5.30;3.00;;;;;;;25.73;52.67;99751.80;109677;1250;67925;-69
2023/09/10 07:24:06;;;;;;;3.00;2.70;;;;;;;25.85;53.49;99754.11;109679;1250;72609;-69
2023/09/10 07:26:33;;;;;;;3.00;2.40;;;;;;;26.12;52.88;99750.69;109650;1251;60149;-70
2023/09/10 07:29:00;;;;;;;5.10;2.90;;;;;;;26.39;51.78;99746.69;109674;1250;60245;-70
2023/09/10 07:31:26;;;;;;;6.40;3.00;;;;;;;26.54;50.55;99747.83;109619;1250;75300;-68
2023/09/10 07:33:53;;;;;;;4.30;2.80;;;;;;;26.62;49.76;99746.00;109671;1250;67894;-70
2023/09/10 07:36:20;;;;;;;3.90;2.80;;;;;;;26.80;49.08;99750.76;109680;1250;59837;-66
2023/09/10 07:38:48;;;;;;;3.50;2.30;;;;;;;26.86;47.54;99749.14;109597;1250;60038;-70
2023/09/10 07:41:14;;;;;;;3.20;2.80;;;;;;;26.71;47.90;99751.27;109658;1250;59753;-67
2023/09/10 07:43:41;;;;;;;3.70;2.30;;;;;;;26.70;48.88;99750.94;109616;1250;74218;-69
2023/09/10 07:46:07;;;;;;;3.30;2.40;;;;;;;26.90;48.67;99746.48;109693;1250;67686;-70
2023/09/10 07:48:35;;;;;;;4.50;2.70;;;;;;;27.13;47.57;99744.33;109661;1250;72563;-70
2023/09/10 07:51:02;;;;;;;3.30;2.60;;;;;;;27.31;47.64;99743.58;109697;1250;60066;-68
2023/09/10 07:53:29;;;;;;;2.60;2.20;;;;;;;27.54;45.99;99747.27;109734;1250;59818;-70
2023/09/10 07:55:56;;;;;;;4.10;2.30;;;;;;;27.54;45.17;99746.05;109674;1250;75433;-68
2023/09/10 07:58:22;;;;;;;4.90;2.40;;;;;;;27.59;45.04;99746.32;109687;1250;67586;-72
2023/09/10 08:00:53;;;;;;;3.60;2.20;;;;;;;27.67;44.84;99749.42;109640;1250;59750;-71
2023/09/10 08:03:19;;;;;;;3.90;2.50;;;;;;;27.74;44.51;99747.67;109616;1250;59669;-71
2023/09/10 08:05:46;;;;;;;3.00;2.30;;;;;;;27.81;43.76;99750.55;109620;1250;60580;-72
2023/09/10 08:08:13;;;;;;;8.00;2.50;;;;;;;27.89;43.63;99749.13;109713;1250;75330;-71
2023/09/10 08:10:39;;;;;;;2.90;2.60;;;;;;;27.98;42.62;99743.96;109690;1250;67667;-69
2023/09/10 08:13:06;;;;;;;6.10;2.80;;;;;;;27.98;42.67;99745.33;109601;1250;72461;-61
2023/09/10 08:15:32;;;;;;;4.10;2.70;;;;;;;28.13;41.75;99747.61;109647;1251;59750;-61
2023/09/10 08:17:59;;;;;;;2.70;2.50;;;;;;;28.30;42.42;99741.04;109704;1250;60378;-61
2023/09/10 08:20:26;;;;;;;6.80;2.60;;;;;;;28.75;41.88;99740.73;109621;1250;73699;-61
2023/09/10 08:22:53;;;;;;;3.20;1.90;;;;;;;29.12;40.13;99744.77;109559;1250;66924;-61
2023/09/10 08:25:20;;;;;;;6.30;2.10;;;;;;;29.21;38.43;99741.61;109559;1250;72698;-61
2023/09/10 08:27:47;;;;;;;2.90;1.90;;;;;;;29.00;37.76;99740.59;109562;1250;60493;-61
2023/09/10 08:30:14;;;;;;;2.40;2.10;;;;;;;28.66;38.55;99741.98;109625;1250;59746;-60
2023/09/10 08:32:42;;;;;;;4.20;2.20;;;;;;;28.55;39.56;99743.56;109599;1251;75492;-64
2023/09/10 08:35:09;;;;;;;2.20;1.50;;;;;;;28.66;38.99;99744.23;109589;1250;67582;-59
2023/09/10 08:37:36;;;;;;;2.40;2.00;;;;;;;28.86;39.40;99743.75;109661;1251;72722;-78
2023/09/10 08:40:03;;;;;;;5.10;1.60;;;;;;;29.17;37.32;99744.73;109643;1250;59738;-77
2023/09/10 08:42:51;;;;;;;2.80;1.90;;;;;;;29.09;36.61;99745.34;109611;1251;59880;-81
2023/09/10 08:45:18;;;;;;;2.10;1.50;;;;;;;29.01;36.51;99745.33;109574;1250;75569;-80
2023/09/10 08:47:45;;;;;;;3.00;1.60;;;;;;;29.05;36.73;99740.83;109657;1250;67019;-82
2023/09/10 08:50:12;;;;;;;2.50;1.40;;;;;;;29.10;36.15;99737.77;109637;1250;71628;-80
2023/09/10 08:52:43;;;;;;;2.30;1.80;;;;;;;29.19;36.44;99733.98;109525;1250;60366;-77
2023/09/10 08:55:13;;;;;;;3.30;1.80;;;;;;;29.27;36.36;99730.54;109546;1250;59807;-78
2023/09/10 08:57:41;;;;;;;2.50;1.80;;;;;;;29.30;35.80;99732.45;109591;1252;76566;-68
2023/09/10 09:00:12;;;;;;;1.40;1.30;;;;;;;29.27;35.20;99734.65;109634;1250;66750;-76
2023/09/10 09:02:40;;;;;;;2.30;1.50;;;;;;;29.24;34.93;99736.11;109557;1251;71630;-74
2023/09/10 09:05:07;;;;;;;2.00;1.50;;;;;;;29.31;35.42;99731.67;109522;1250;60162;-74
2023/09/10 09:07:54;;;;;;;1.80;1.30;;;;;;;29.57;36.13;99731.33;109535;1251;60370;-73
2023/09/10 09:10:24;;;;;;;2.80;1.60;;;;;;;29.74;33.81;99734.24;109612;1250;75237;-76
2023/09/10 09:13:01;;;;;;;2.10;1.70;;;;;;;29.44;34.19;99732.83;109543;1250;66291;-73
2023/09/10 09:15:28;;;;;;;2.00;1.50;;;;;;;29.24;34.78;99731.45;109486;1250;72695;-78
2023/09/10 09:17:58;;;;;;;2.30;1.90;;;;;;;29.20;35.35;99728.02;109483;1250;60196;-72
2023/09/10 09:20:27;;;;;;;2.00;1.80;;;;;;;29.25;35.65;99728.76;109569;1250;60289;-74
2023/09/10 09:22:56;;;;;;;3.80;2.30;;;;;;;29.42;35.60;99723.08;109508;1250;74476;-73
2023/09/10 09:25:23;;;;;;;1.70;1.60;;;;;;;29.67;34.74;99726.41;109477;1250;66316;-75
2023/09/10 09:27:50;;;;;;;1.80;1.60;;;;;;;29.57;34.53;99720.32;109597;1250;72713;-72
2023/09/10 09:30:16;;;;;;;2.40;1.50;;;;;;;29.42;34.60;99720.73;109500;1250;60070;-72
2023/09/10 09:32:44;;;;;;;4.40;1.70;;;;;;;29.24;34.69;99724.65;109656;1250;59723;-73
2023/09/10 09:35:11;;;;;;;2.20;1.70;;;;;;;28.83;34.68;99723.95;109528;1250;75435;-73
2023/09/10 09:37:38;;;;;;;3.20;1.40;;;;;;;28.44;35.23;99721.67;109616;1250;68012;-72
2023/09/10 09:40:09;;;;;;;1.40;1.30;;;;;;;28.22;36.03;99723.08;109667;1250;71278;-72
2023/09/10 09:42:37;;;;;;;3.20;1.50;;;;;;;28.18;36.36;99718.92;109658;1251;60103;-73
2023/09/10 09:45:04;;;;;;;3.50;1.80;;;;;;;28.23;36.53;99719.84;109619;1250;59820;-73
2023/09/10 09:47:31;;;;;;;2.20;1.60;;;;;;;28.24;36.57;99714.42;109598;1251;75461;-73
2023/09/10 09:49:58;;;;;;;2.00;1.20;;;;;;;28.21;36.56;99718.20;109709;1250;67824;-75
2023/09/10 09:52:24;;;;;;;1.70;1.30;;;;;;;28.04;36.69;99720.45;109621;1249;71672;-74
2023/09/10 09:54:51;;;;;;;3.60;1.70;;;;;;;27.77;37.21;99712.91;109492;1250;59738;-72
2023/09/10 09:57:17;;;;;;;2.00;1.60;;;;;;;27.70;38.00;99706.30;109621;1250;59774;-72
2023/09/10 09:59:44;;;;;;;2.90;1.80;;;;;;;27.83;38.84;99712.07;109646;1250;75530;-74
2023/09/10 10:02:13;;;;;;;1.60;1.30;;;;;;;28.05;38.08;99711.65;109683;1250;66743;-70
2023/09/10 10:04:41;;;;;;;2.70;1.60;;;;;;;28.07;37.52;99714.38;109595;1250;72710;-72
2023/09/10 10:07:08;;;;;;;4.20;1.80;;;;;;;27.86;37.72;99710.96;109601;1250;59845;-68
2023/09/10 10:09:49;;;;;;;1.80;1.60;;;;;;;27.55;37.80;99708.08;109538;1250;60277;-69
2023/09/10 10:12:15;;;;;;;3.60;1.60;;;;;;;27.24;38.34;99709.61;109567;1252;75379;-67
2023/09/10 10:14:42;;;;;;;2.10;1.20;;;;;;;26.99;39.23;99712.21;109690;1250;59814;-68
2023/09/10 10:17:08;;;;;;;1.60;1.40;;;;;;;26.80;39.56;99712.23;109517;1252;59691;-64
2023/09/10 10:19:35;;;;;;;3.20;1.40;;;;;;;26.64;40.37;99710.70;109540;1251;59934;-66
2023/09/10 10:22:04;;;;;;;2.70;1.40;;;;;;;26.63;41.06;99713.59;109613;1250;60063;-67
2023/09/10 10:24:33;;;;;;;1.70;1.20;;;;;;;26.64;41.10;99716.92;109681;1250;75372;-68
2023/09/10 10:27:00;;;;;;;2.60;1.70;;;;;;;26.57;41.74;99710.02;109653;1250;67674;-67
2023/09/10 10:29:30;;;;;;;2.80;2.00;;;;;;;26.56;41.87;99711.27;109616;1250;72723;-67
2023/09/10 10:32:24;;;;;;;2.00;1.40;;;;;;;26.46;41.30;99706.00;109584;1251;59865;-67
2023/09/10 10:34:58;;;;;;;2.60;1.70;;;;;;;26.29;41.60;99701.58;109570;1250;60435;-67
2023/09/10 10:37:27;;;;;;;3.30;1.50;;;;;;;26.16;42.34;99700.27;109685;1250;75236;-66
2023/09/10 10:40:10;;;;;;;1.90;1.20;;;;;;;26.06;43.10;99702.17;109631;1250;66297;-66
2023/09/10 10:42:39;;;;;;;2.00;1.50;;;;;;;26.00;43.28;99694.52;109585;1250;71534;-66
2023/09/10 10:45:06;;;;;;;1.90;1.30;;;;;;;25.97;43.81;99697.21;109689;1250;61313;-66
2023/09/10 10:47:43;;;;;;;1.50;1.40;;;;;;;25.82;43.48;99696.27;109588;1250;60553;-70
2023/09/10 10:50:10;;;;;;;1.60;1.50;;;;;;;25.67;43.59;99687.69;109619;1250;73928;-68
2023/09/10 10:53:04;;;;;;;3.90;1.40;;;;;;;25.59;44.13;99681.27;109536;1251;68304;-68
2023/09/10 10:55:33;;;;;;;2.40;1.60;;;;;;;25.59;43.87;99690.20;109619;1250;71092;-66
2023/09/10 10:57:59;;;;;;;2.40;1.90;;;;;;;25.44;43.99;99686.59;109639;1250;60210;-67
2023/09/10 11:00:26;;;;;;;1.90;1.30;;;;;;;25.34;44.63;99685.40;109596;1250;60326;-67
2023/09/10 11:03:13;;;;;;;3.80;1.50;;;;;;;25.32;44.76;99675.86;109664;1250;74974;-66
2023/09/10 11:05:51;;;;;;;3.30;1.90;;;;;;;25.36;45.75;99681.29;109636;1250;66398;-68
2023/09/10 11:08:24;;;;;;;3.40;1.80;;;;;;;25.34;45.42;99671.36;109636;1250;71248;-67
2023/09/10 11:10:51;;;;;;;3.40;1.40;;;;;;;25.35;46.81;99668.70;109628;1250;59763;-66
2023/09/10 11:13:18;;;;;;;3.50;1.50;;;;;;;25.47;46.37;99668.33;109707;1250;59690;-67
2023/09/10 11:16:03;;;;;;;3.00;1.90;;;;;;;25.52;46.69;99652.35;109671;1250;74401;-67
2023/09/10 11:18:41;;;;;;;1.60;1.40;;;;;;;25.58;47.02;99647.91;109680;1250;67743;-68
2023/09/10 11:21:10;;;;;;;3.70;1.50;;;;;;;25.58;45.98;99650.20;109563;1250;71258;-67
2023/09/10 11:23:39;;;;;;;2.30;1.80;;;;;;;25.38;45.40;99652.06;109633;1250;60316;-67
2023/09/10 11:26:15;;;;;;;2.40;1.60;;;;;;;25.16;46.11;99647.93;109639;1250;59817;-67